Time;durP1;ratioP1;P1;durP2;ratioP2;P2;SDS_P1;SDS_P2;PMS_P1;PMS_P2;Temp;Humidity;BMP_temperature;BMP_pressure;BME280_temperature;BME280_humidity;BME280_pressure;Samples;Min_cycle;Max_cycle;Signal;HPM_P1;HPM_P2
2023/04/29 00:01:57;;;;;;;14.30;6.20;;;;;;;17.23;54.03;101632.31;5049585;28;20037;-69
2023/04/29 00:04:24;;;;;;;14.03;7.07;;;;;;;18.39;51.38;101620.38;5057205;28;20032;-68
2023/04/29 00:06:49;;;;;;;12.90;5.67;;;;;;;17.58;53.24;101640.25;5050942;28;20120;-69
2023/04/29 00:09:15;;;;;;;13.80;5.83;;;;;;;16.68;57.47;101631.84;5050698;28;20029;-69
2023/04/29 00:11:40;;;;;;;14.50;6.57;;;;;;;16.36;57.09;101644.00;5035339;28;20021;-69
2023/04/29 00:14:05;;;;;;;14.47;6.30;;;;;;;16.76;55.59;101637.81;5028570;28;20366;-69
2023/04/29 00:16:31;;;;;;;11.90;5.70;;;;;;;16.43;57.42;101634.16;5030437;28;20543;-69
2023/04/29 00:18:56;;;;;;;20.03;7.53;;;;;;;17.39;54.62;101635.44;5062983;28;20024;-69
2023/04/29 00:21:21;;;;;;;18.67;7.30;;;;;;;17.21;55.08;101638.53;5070582;28;20464;-69
2023/04/29 00:23:47;;;;;;;14.73;6.63;;;;;;;17.45;54.42;101637.91;5070104;28;20079;-69
2023/04/29 00:26:12;;;;;;;19.17;7.20;;;;;;;16.18;57.70;101639.94;5057668;28;20025;-69
2023/04/29 00:28:38;;;;;;;13.07;5.67;;;;;;;15.33;60.58;101641.53;5029490;28;20021;-69
2023/04/29 00:31:04;;;;;;;19.17;7.23;;;;;;;15.86;58.66;101644.09;5030187;28;20017;-69
2023/04/29 00:33:29;;;;;;;15.47;6.23;;;;;;;15.68;58.38;101649.69;5037465;28;20041;-69
2023/04/29 00:35:55;;;;;;;16.60;8.07;;;;;;;16.50;56.16;101641.03;5049091;28;20412;-69
2023/04/29 00:38:20;;;;;;;14.50;6.60;;;;;;;16.21;58.37;101644.28;5048423;28;20095;-69
2023/04/29 00:40:46;;;;;;;13.70;7.03;;;;;;;16.57;56.31;101647.06;5049802;28;20496;-70
2023/04/29 00:43:12;;;;;;;13.87;6.77;;;;;;;16.56;56.37;101645.31;5039804;28;20298;-69
2023/04/29 00:45:38;;;;;;;15.50;6.17;;;;;;;15.98;56.98;101655.28;5057180;28;20033;-69
2023/04/29 00:48:04;;;;;;;14.43;6.53;;;;;;;17.13;53.25;101658.09;5028804;28;20017;-69
2023/04/29 00:50:29;;;;;;;14.30;6.10;;;;;;;16.92;54.13;101650.69;5048760;28;20078;-69
2023/04/29 00:52:55;;;;;;;11.03;6.00;;;;;;;15.49;59.55;101659.69;5049910;28;20175;-69
2023/04/29 00:55:22;;;;;;;17.07;6.57;;;;;;;16.28;56.74;101656.47;5049221;28;20021;-69
2023/04/29 00:57:51;;;;;;;15.47;8.70;;;;;;;17.06;53.43;101651.25;5029710;28;20037;-69
2023/04/29 01:00:17;;;;;;;15.50;7.13;;;;;;;16.05;57.14;101657.78;5045387;28;20034;-69
2023/04/29 01:02:44;;;;;;;17.77;7.33;;;;;;;16.00;58.35;101662.28;5050130;28;20039;-69
2023/04/29 01:05:10;;;;;;;14.07;7.20;;;;;;;16.35;59.06;101658.06;5052667;28;20469;-69
2023/04/29 01:07:47;;;;;;;14.50;5.97;;;;;;;15.89;57.26;101670.38;5050696;28;20036;-70
2023/04/29 01:10:23;;;;;;;18.90;6.43;;;;;;;15.23;58.55;101658.34;5047267;28;20060;-70
2023/04/29 01:13:16;;;;;;;16.50;6.27;;;;;;;16.38;58.55;101668.56;5029243;28;20034;-69
2023/04/29 01:15:54;;;;;;;13.82;6.20;;;;;;;16.86;55.50;101670.16;5029180;28;20033;-69
2023/04/29 01:18:32;;;;;;;15.13;6.27;;;;;;;16.69;56.25;101667.91;5029738;28;20456;-71
2023/04/29 01:20:58;;;;;;;15.77;6.50;;;;;;;17.30;55.15;101672.66;5048205;28;20448;-70
2023/04/29 01:23:30;;;;;;;13.73;6.33;;;;;;;16.14;57.70;101663.78;5050138;28;20452;-69
2023/04/29 01:25:57;;;;;;;17.70;6.82;;;;;;;17.27;54.68;101675.41;5046820;28;20393;-69
2023/04/29 01:28:37;;;;;;;16.10;6.20;;;;;;;17.06;53.63;101677.66;5068769;28;20086;-70
2023/04/29 01:31:26;;;;;;;16.87;5.50;;;;;;;16.35;55.45;101676.53;5069539;28;20135;-69
2023/04/29 01:34:18;;;;;;;12.80;6.20;;;;;;;16.65;54.51;101687.34;5017371;28;20040;-69
2023/04/29 01:37:27;;;;;;;15.02;6.03;;;;;;;17.20;54.71;101687.00;5044950;28;20477;-69
2023/04/29 01:40:29;;;;;;;14.83;5.40;;;;;;;17.22;55.20;101693.97;4960788;28;20042;-69
2023/04/29 01:43:00;;;;;;;14.43;6.27;;;;;;;16.73;56.46;101688.06;4988362;28;20048;-69
2023/04/29 01:45:27;;;;;;;12.87;6.00;;;;;;;16.89;56.15;101693.00;5055811;28;20098;-69
2023/04/29 01:47:55;;;;;;;12.47;5.67;;;;;;;17.04;54.70;101689.16;5068431;28;20020;-70
2023/04/29 01:50:20;;;;;;;15.07;6.37;;;;;;;17.52;52.99;101695.91;5050950;28;20051;-69
2023/04/29 01:52:45;;;;;;;15.40;5.60;;;;;;;17.37;52.76;101700.66;5046991;28;20049;-69
2023/04/29 01:55:11;;;;;;;12.90;6.43;;;;;;;18.23;51.09;101688.75;5048650;28;20036;-69
2023/04/29 01:57:36;;;;;;;13.03;6.30;;;;;;;17.24;53.79;101697.47;5044478;28;20033;-69
2023/04/29 02:00:02;;;;;;;14.70;6.97;;;;;;;16.85;54.87;101689.53;5038439;28;20079;-69
2023/04/29 02:02:27;;;;;;;15.20;5.60;;;;;;;17.03;54.01;101693.53;5043506;28;20061;-69
2023/04/29 02:04:53;;;;;;;12.33;5.90;;;;;;;17.40;53.15;101691.81;5039743;28;20024;-69
2023/04/29 02:07:18;;;;;;;15.10;6.83;;;;;;;17.38;54.01;101694.47;5058482;28;20032;-70
2023/04/29 02:09:44;;;;;;;15.43;4.70;;;;;;;16.67;54.46;101706.66;5039722;28;20022;-69
2023/04/29 02:12:09;;;;;;;12.37;4.87;;;;;;;16.43;55.48;101702.75;5027855;28;20477;-69
2023/04/29 02:14:35;;;;;;;14.60;6.50;;;;;;;17.42;53.10;101711.13;5033423;28;20383;-72
2023/04/29 02:17:00;;;;;;;12.57;5.43;;;;;;;17.76;52.19;101705.88;5048300;28;20067;-69
2023/04/29 02:19:25;;;;;;;11.97;6.07;;;;;;;17.73;50.92;101711.19;5044926;28;20036;-69
2023/04/29 02:21:51;;;;;;;13.83;6.77;;;;;;;17.85;51.88;101719.75;5041366;28;20033;-69
2023/04/29 02:24:16;;;;;;;14.77;5.37;;;;;;;17.25;52.61;101720.31;5032119;28;20043;-69
2023/04/29 02:26:41;;;;;;;13.17;6.23;;;;;;;17.77;51.30;101726.09;5048521;28;20104;-69
2023/04/29 02:29:07;;;;;;;13.73;6.13;;;;;;;17.43;54.42;101726.06;5046846;28;20075;-70
2023/04/29 02:31:32;;;;;;;12.77;5.97;;;;;;;17.10;54.50;101725.97;5047647;28;20067;-70
2023/04/29 02:33:59;;;;;;;8.67;5.10;;;;;;;16.84;53.83;101723.88;5052180;28;20468;-70
2023/04/29 02:36:24;;;;;;;15.27;6.53;;;;;;;16.60;55.20;101731.44;5053469;28;20036;-70
2023/04/29 02:38:49;;;;;;;14.23;5.60;;;;;;;17.18;53.20;101728.44;5049052;28;20082;-70
2023/04/29 02:41:16;;;;;;;14.80;6.00;;;;;;;17.36;52.80;101733.28;5031079;28;20597;-70
2023/04/29 02:43:43;;;;;;;13.10;5.87;;;;;;;17.08;52.83;101741.84;5033505;28;20095;-70
2023/04/29 02:46:09;;;;;;;11.67;5.10;;;;;;;17.01;52.87;101748.19;5056718;28;20416;-70
2023/04/29 02:48:34;;;;;;;13.37;5.77;;;;;;;17.77;51.18;101752.53;5072528;28;20379;-69
2023/04/29 02:50:59;;;;;;;13.27;5.60;;;;;;;17.35;52.54;101752.69;5046147;28;20021;-70
2023/04/29 02:53:25;;;;;;;12.13;5.40;;;;;;;16.89;53.91;101753.75;5052668;28;20053;-70
2023/04/29 02:55:50;;;;;;;11.67;5.00;;;;;;;18.13;49.92;101756.91;5049449;28;20036;-70
2023/04/29 02:58:15;;;;;;;10.50;5.50;;;;;;;18.30;49.61;101759.97;5034116;28;20040;-70
2023/04/29 03:00:41;;;;;;;13.77;4.83;;;;;;;17.73;50.49;101761.44;5043752;28;20028;-70
2023/04/29 03:03:06;;;;;;;9.33;4.77;;;;;;;17.02;52.16;101770.16;5030545;28;20488;-70
2023/04/29 03:05:31;;;;;;;13.57;5.33;;;;;;;17.21;52.38;101765.34;5037452;28;20020;-70
2023/04/29 03:07:57;;;;;;;13.20;5.13;;;;;;;17.96;50.74;101770.59;5055087;28;20027;-68
2023/04/29 03:10:22;;;;;;;11.10;4.87;;;;;;;17.82;50.20;101770.94;5049062;28;20029;-68
2023/04/29 03:12:47;;;;;;;12.60;4.93;;;;;;;17.81;50.08;101772.69;5036313;28;20120;-68
2023/04/29 03:15:14;;;;;;;10.77;5.30;;;;;;;17.96;50.34;101776.75;5036239;28;20021;-69
2023/04/29 03:17:39;;;;;;;11.67;5.53;;;;;;;17.77;50.49;101781.59;5052117;28;20025;-68
2023/04/29 03:20:06;;;;;;;13.53;5.17;;;;;;;18.16;49.59;101771.84;5049493;28;20571;-68
2023/04/29 03:22:32;;;;;;;11.57;5.43;;;;;;;17.03;52.19;101772.78;5068857;28;20484;-68
2023/04/29 03:24:57;;;;;;;11.17;4.93;;;;;;;18.22;49.38;101777.00;5070441;28;20085;-69
2023/04/29 03:27:22;;;;;;;11.20;5.90;;;;;;;17.80;50.29;101776.25;5072037;28;20878;-68
2023/04/29 03:29:48;;;;;;;11.57;4.83;;;;;;;17.55;51.11;101772.50;5052675;28;20028;-68
2023/04/29 03:32:13;;;;;;;13.83;5.43;;;;;;;17.64;49.96;101780.19;5051306;28;20032;-69
2023/04/29 03:34:39;;;;;;;10.40;4.70;;;;;;;18.13;49.98;101773.69;5048886;28;20058;-68
2023/04/29 03:37:04;;;;;;;13.37;5.80;;;;;;;17.63;50.27;101783.75;5053473;28;20024;-69
2023/04/29 03:39:31;;;;;;;10.20;5.10;;;;;;;18.18;50.07;101780.63;5051645;28;20132;-69
2023/04/29 03:41:58;;;;;;;8.77;4.67;;;;;;;18.42;47.91;101779.97;5052412;28;20033;-70
2023/04/29 03:44:24;;;;;;;10.27;4.03;;;;;;;17.30;49.80;101781.00;5048503;28;20307;-70
2023/04/29 03:46:49;;;;;;;10.47;4.53;;;;;;;18.53;47.55;101784.06;5050174;28;20029;-69
2023/04/29 03:49:14;;;;;;;11.87;4.23;;;;;;;18.80;47.20;101780.59;5050838;28;20033;-69
2023/04/29 03:51:40;;;;;;;12.83;4.50;;;;;;;18.36;48.75;101784.56;5050239;28;20032;-70
2023/04/29 03:54:06;;;;;;;10.37;4.43;;;;;;;18.96;46.83;101780.22;5050100;28;20132;-70
2023/04/29 03:56:31;;;;;;;9.77;4.83;;;;;;;18.72;47.10;101782.63;5054926;28;20028;-70
2023/04/29 03:58:57;;;;;;;11.23;4.60;;;;;;;18.40;47.57;101792.34;5051992;28;20107;-70
2023/04/29 04:01:22;;;;;;;14.47;4.00;;;;;;;18.78;47.29;101793.03;5034011;28;20022;-70
2023/04/29 04:03:47;;;;;;;11.57;4.93;;;;;;;18.42;47.69;101794.94;5051985;28;20459;-69
2023/04/29 04:06:13;;;;;;;10.10;5.33;;;;;;;18.65;47.02;101796.94;5049715;28;20071;-69
2023/04/29 04:08:39;;;;;;;9.87;4.57;;;;;;;17.66;49.95;101794.22;5037304;28;20027;-69
2023/04/29 04:11:05;;;;;;;13.40;5.33;;;;;;;18.16;47.39;101793.00;5031547;28;20026;-70
2023/04/29 04:13:31;;;;;;;12.90;5.10;;;;;;;17.87;48.51;101797.25;5029746;28;20025;-69
2023/04/29 04:15:57;;;;;;;11.97;5.07;;;;;;;18.46;48.19;101801.91;5037677;28;20415;-70
2023/04/29 04:18:23;;;;;;;10.63;4.97;;;;;;;19.28;46.22;101802.19;5050063;28;20024;-69
2023/04/29 04:20:48;;;;;;;10.77;4.73;;;;;;;18.76;46.81;101802.81;5049942;28;20025;-69
2023/04/29 04:23:14;;;;;;;10.40;4.60;;;;;;;18.01;48.22;101808.41;5051109;28;20102;-69
2023/04/29 04:25:46;;;;;;;12.20;5.50;;;;;;;17.41;49.96;101815.97;5069052;28;20020;-69
2023/04/29 04:28:11;;;;;;;9.75;5.07;;;;;;;17.99;49.35;101818.13;5032944;28;20056;-69
2023/04/29 04:30:37;;;;;;;12.13;5.13;;;;;;;17.42;50.07;101812.41;5038739;28;20029;-69
2023/04/29 04:33:02;;;;;;;14.67;4.90;;;;;;;18.85;47.00;101829.94;5050770;28;20440;-70
2023/04/29 04:35:28;;;;;;;13.20;5.93;;;;;;;18.13;48.46;101826.59;5050582;28;20029;-70
2023/04/29 04:37:53;;;;;;;11.13;5.53;;;;;;;18.09;49.41;101832.88;5051307;28;20033;-69
2023/04/29 04:40:19;;;;;;;9.90;5.20;;;;;;;18.29;48.00;101828.84;5032040;28;20087;-69
2023/04/29 04:42:45;;;;;;;9.87;4.57;;;;;;;18.32;48.61;101831.38;5030667;28;20037;-69
2023/04/29 04:45:11;;;;;;;9.83;5.37;;;;;;;17.55;49.96;101843.84;5061237;28;20032;-70
2023/04/29 04:47:36;;;;;;;12.30;5.17;;;;;;;17.74;49.39;101839.88;5049698;28;20035;-69
2023/04/29 04:50:03;;;;;;;12.93;4.90;;;;;;;17.67;51.07;101845.31;5061484;28;20377;-70
2023/04/29 04:52:28;;;;;;;14.00;5.70;;;;;;;17.93;49.73;101855.34;5051090;28;20060;-69
2023/04/29 04:54:54;;;;;;;13.07;4.93;;;;;;;18.05;49.25;101855.03;5049993;28;20104;-69
2023/04/29 04:57:19;;;;;;;9.43;4.37;;;;;;;18.19;49.77;101861.72;5046292;28;20094;-69
2023/04/29 04:59:45;;;;;;;14.07;5.10;;;;;;;18.57;49.41;101862.50;5053115;28;20074;-70
2023/04/29 05:02:10;;;;;;;12.23;5.20;;;;;;;18.61;48.79;101864.16;5049964;28;20031;-69
2023/04/29 05:04:36;;;;;;;15.93;5.67;;;;;;;19.07;47.90;101868.19;5050022;28;20487;-69
2023/04/29 05:07:01;;;;;;;14.17;5.30;;;;;;;17.01;53.17;101869.69;5049447;28;20037;-70
2023/04/29 05:09:26;;;;;;;13.60;5.30;;;;;;;18.45;49.69;101875.16;5048223;28;20033;-70
2023/04/29 05:11:52;;;;;;;12.97;4.67;;;;;;;18.45;49.89;101879.56;5028770;28;20053;-70
2023/04/29 05:14:18;;;;;;;12.73;4.67;;;;;;;18.26;49.47;101881.84;5045539;28;20051;-70
2023/04/29 05:16:45;;;;;;;9.30;4.70;;;;;;;18.37;49.97;101887.72;5039336;28;20485;-70
2023/04/29 05:19:10;;;;;;;12.00;4.97;;;;;;;16.86;53.00;101891.09;5049107;28;20124;-70
2023/04/29 05:21:36;;;;;;;13.37;4.93;;;;;;;17.91;51.63;101888.84;5049424;28;20033;-69
2023/04/29 05:24:01;;;;;;;14.13;6.03;;;;;;;18.59;49.19;101892.47;5041662;28;20535;-69
2023/04/29 05:26:26;;;;;;;12.50;5.10;;;;;;;17.34;53.52;101898.94;5049481;28;20048;-69
2023/04/29 05:28:52;;;;;;;10.37;4.93;;;;;;;17.71;53.09;101906.03;5042597;28;20064;-69
2023/04/29 05:31:17;;;;;;;12.77;5.63;;;;;;;17.22;54.56;101907.13;5029021;28;20362;-70
2023/04/29 05:33:43;;;;;;;13.07;5.40;;;;;;;17.45;54.07;101902.19;5029139;28;20129;-69
2023/04/29 05:36:08;;;;;;;14.20;5.00;;;;;;;18.13;51.49;101899.78;5029738;28;20056;-70
2023/04/29 05:38:33;;;;;;;14.00;5.43;;;;;;;19.42;47.87;101894.53;5044879;28;20484;-70
2023/04/29 05:40:59;;;;;;;12.87;5.30;;;;;;;19.28;48.24;101911.72;5058981;28;20059;-70
2023/04/29 05:43:24;;;;;;;14.13;5.03;;;;;;;18.19;50.45;101910.22;5048023;28;20456;-70
2023/04/29 05:45:49;;;;;;;13.23;5.40;;;;;;;19.50;47.77;101903.97;5032250;28;20033;-70
2023/04/29 05:48:15;;;;;;;13.67;4.97;;;;;;;19.15;48.06;101908.56;5046788;28;20044;-70
2023/04/29 05:50:41;;;;;;;18.20;6.97;;;;;;;18.78;49.51;101920.16;5054998;28;20075;-70
2023/04/29 05:53:06;;;;;;;11.37;5.17;;;;;;;18.74;49.76;101917.63;5040657;28;20048;-70
2023/04/29 05:55:31;;;;;;;10.93;5.40;;;;;;;18.10;50.09;101927.19;5049590;28;20060;-70
2023/04/29 05:57:57;;;;;;;14.80;5.77;;;;;;;17.74;51.14;101932.41;5050223;28;20075;-70
2023/04/29 06:00:22;;;;;;;13.03;5.43;;;;;;;18.48;49.50;101928.00;5037934;28;20294;-69
2023/04/29 06:02:48;;;;;;;15.67;5.50;;;;;;;18.04;49.87;101935.28;5042735;28;20507;-70
2023/04/29 06:05:14;;;;;;;10.90;5.13;;;;;;;18.94;47.58;101935.66;5028805;28;20037;-70
2023/04/29 06:07:40;;;;;;;12.07;4.97;;;;;;;19.42;47.11;101943.13;5037646;28;20025;-70
2023/04/29 06:10:06;;;;;;;13.47;5.10;;;;;;;19.77;46.05;101941.19;5031179;28;20558;-70
2023/04/29 06:12:31;;;;;;;12.43;5.13;;;;;;;19.69;46.34;101940.56;5032219;28;20037;-70
2023/04/29 06:14:57;;;;;;;9.40;4.50;;;;;;;19.80;45.99;101940.25;5027980;28;20120;-70
2023/04/29 06:17:22;;;;;;;13.33;5.17;;;;;;;19.77;46.56;101954.47;5037026;28;20060;-70
2023/04/29 06:19:47;;;;;;;13.07;5.50;;;;;;;20.59;44.38;101953.59;5052249;28;20029;-70
2023/04/29 06:22:13;;;;;;;15.47;5.13;;;;;;;19.06;48.07;101959.16;5031187;28;20104;-71
2023/04/29 06:24:38;;;;;;;9.00;4.17;;;;;;;19.22;47.97;101961.38;5049782;28;20049;-70
2023/04/29 06:27:04;;;;;;;10.67;4.43;;;;;;;18.76;47.39;101969.66;5046843;28;20033;-70
2023/04/29 06:29:29;;;;;;;10.43;4.57;;;;;;;19.66;45.97;101972.50;5045263;28;20443;-70
2023/04/29 06:31:55;;;;;;;14.33;3.87;;;;;;;19.02;47.62;101970.75;5057718;28;20588;-70
2023/04/29 06:34:20;;;;;;;10.50;4.57;;;;;;;19.25;45.45;101977.22;5058673;28;20036;-70
2023/04/29 06:36:46;;;;;;;7.17;3.53;;;;;;;19.84;45.85;101971.09;5058134;28;20041;-70
2023/04/29 06:39:11;;;;;;;9.10;4.27;;;;;;;20.05;45.01;101974.84;5047009;28;20028;-70
2023/04/29 06:41:36;;;;;;;14.80;4.23;;;;;;;19.93;45.04;101977.88;5046524;28;20029;-70
2023/04/29 06:44:02;;;;;;;7.93;4.13;;;;;;;19.85;44.87;101990.50;5050846;28;20216;-70
2023/04/29 06:46:28;;;;;;;13.33;4.57;;;;;;;20.64;43.74;101983.53;5048833;28;20029;-70
2023/04/29 06:48:53;;;;;;;8.70;4.20;;;;;;;20.74;43.73;101994.75;5051444;28;20036;-70
2023/04/29 06:51:19;;;;;;;9.43;3.80;;;;;;;21.18;42.31;101994.97;5065632;28;20020;-70
2023/04/29 06:53:45;;;;;;;8.65;4.18;;;;;;;20.06;44.71;101997.81;5044683;28;20451;-70
2023/04/29 06:56:11;;;;;;;9.00;3.53;;;;;;;21.27;42.01;102005.28;5036053;28;20087;-71
2023/04/29 06:58:37;;;;;;;8.57;3.33;;;;;;;20.76;41.89;102003.53;5031288;28;20293;-71
2023/04/29 07:01:07;;;;;;;9.68;3.90;;;;;;;20.70;42.17;101998.44;5046710;28;20153;-71
2023/04/29 07:03:32;;;;;;;9.02;3.20;;;;;;;19.74;43.24;102018.22;5048297;28;20107;-70
2023/04/29 07:05:58;;;;;;;6.97;3.33;;;;;;;19.85;42.91;102025.00;5049195;28;20537;-70
2023/04/29 07:08:24;;;;;;;5.88;3.22;;;;;;;19.09;44.33;102025.31;5045567;28;20033;-70
2023/04/29 07:10:57;;;;;;;8.93;3.50;;;;;;;20.83;42.44;102021.88;5056577;28;20020;-71
2023/04/29 07:13:24;;;;;;;11.20;3.25;;;;;;;20.62;41.49;102033.19;5067404;28;20481;-71
2023/04/29 07:15:49;;;;;;;6.80;3.50;;;;;;;19.85;42.58;102046.22;5067079;28;20028;-70
2023/04/29 07:18:15;;;;;;;9.20;3.33;;;;;;;19.13;42.65;102048.19;5053303;28;20025;-71
2023/04/29 07:20:41;;;;;;;10.52;3.22;;;;;;;21.37;39.13;102043.03;5041347;28;20028;-71
2023/04/29 07:23:06;;;;;;;7.63;3.30;;;;;;;21.34;38.00;102037.81;5062260;28;20041;-71
2023/04/29 07:25:32;;;;;;;6.35;3.13;;;;;;;22.74;36.83;102049.28;5051354;28;20503;-71
2023/04/29 07:27:58;;;;;;;6.32;2.65;;;;;;;23.02;36.30;102035.66;5049314;28;20021;-71
2023/04/29 07:30:23;;;;;;;5.80;3.05;;;;;;;24.68;33.77;102034.22;5051112;28;20031;-71
2023/04/29 07:32:49;;;;;;;6.13;3.17;;;;;;;21.54;36.80;102049.53;5051323;28;20134;-70
2023/04/29 07:35:14;;;;;;;6.05;2.25;;;;;;;24.47;33.30;102047.69;5045458;28;20047;-70
2023/04/29 07:37:40;;;;;;;7.03;2.78;;;;;;;25.93;32.68;102050.84;5034135;28;20056;-74
2023/04/29 07:40:06;;;;;;;4.50;2.95;;;;;;;25.42;31.53;102046.47;5050465;28;20087;-70
2023/04/29 07:42:31;;;;;;;4.10;2.45;;;;;;;26.43;30.14;102055.16;5050977;28;20025;-70
2023/04/29 07:44:57;;;;;;;7.20;2.30;;;;;;;25.73;29.81;102050.13;5050330;28;20028;-70
2023/04/29 07:47:22;;;;;;;7.40;2.63;;;;;;;23.55;32.30;102056.44;5050326;28;20036;-72
2023/04/29 07:49:48;;;;;;;4.22;2.13;;;;;;;24.38;32.08;102056.16;5050833;28;20125;-73
2023/04/29 07:52:13;;;;;;;3.65;2.58;;;;;;;24.20;32.24;102065.94;5050017;28;20214;-71
2023/04/29 07:54:38;;;;;;;5.32;1.88;;;;;;;24.83;30.56;102060.16;5052511;28;20037;-73
2023/04/29 07:57:04;;;;;;;5.63;2.90;;;;;;;25.14;29.78;102053.25;5043090;28;20022;-72
2023/04/29 07:59:31;;;;;;;4.05;1.80;;;;;;;24.79;30.33;102057.75;5041761;28;20544;-73
2023/04/29 08:01:56;;;;;;;6.53;2.08;;;;;;;25.40;30.92;102061.72;5050527;28;20035;-73
2023/04/29 08:04:22;;;;;;;3.97;1.90;;;;;;;26.00;29.14;102057.59;5057010;28;20025;-72
2023/04/29 08:06:47;;;;;;;3.90;2.20;;;;;;;25.59;28.92;102058.06;5049803;28;20404;-72
2023/04/29 08:09:13;;;;;;;2.67;2.05;;;;;;;27.26;27.92;102055.59;5046924;28;20052;-72
2023/04/29 08:11:38;;;;;;;4.00;1.98;;;;;;;26.20;28.92;102064.50;5049910;28;20021;-72
2023/04/29 08:14:04;;;;;;;5.22;2.97;;;;;;;25.20;29.93;102058.25;5049902;28;20702;-72
2023/04/29 08:16:30;;;;;;;7.85;2.20;;;;;;;24.09;30.71;102066.44;5050226;28;20090;-72
2023/04/29 08:18:56;;;;;;;2.92;2.00;;;;;;;26.22;28.35;102063.47;5058740;28;20488;-72
2023/04/29 08:21:22;;;;;;;7.22;2.47;;;;;;;26.56;28.13;102055.31;5048889;28;20057;-72
2023/04/29 08:23:47;;;;;;;3.85;1.90;;;;;;;26.30;28.50;102062.19;5039022;28;20051;-72
2023/04/29 08:26:12;;;;;;;3.90;1.73;;;;;;;25.33;29.73;102073.69;5046361;28;20020;-72
2023/04/29 08:28:38;;;;;;;2.80;1.73;;;;;;;25.50;30.05;102072.78;5050741;28;20422;-71
2023/04/29 08:31:09;;;;;;;2.13;1.77;;;;;;;27.00;27.68;102073.28;5048257;28;20029;-72
2023/04/29 08:33:35;;;;;;;2.67;1.50;;;;;;;25.12;28.68;102081.88;5036424;28;20029;-72
2023/04/29 08:36:05;;;;;;;2.30;1.55;;;;;;;26.03;28.28;102076.19;5056530;28;20042;-72
2023/04/29 08:38:30;;;;;;;3.42;1.90;;;;;;;23.61;31.07;102095.31;5067564;28;20397;-72
2023/04/29 08:40:56;;;;;;;6.57;3.08;;;;;;;23.32;31.57;102085.97;5046109;28;20033;-72
2023/04/29 08:43:22;;;;;;;2.40;1.60;;;;;;;23.02;32.27;102096.97;5049967;28;20029;-72
2023/04/29 08:45:48;;;;;;;2.40;1.60;;;;;;;23.28;31.83;102089.69;5051053;28;20455;-72
2023/04/29 08:48:16;;;;;;;3.78;1.83;;;;;;;24.82;30.67;102089.66;5044107;28;20518;-73
2023/04/29 08:50:41;;;;;;;3.05;1.45;;;;;;;25.61;29.44;102098.97;5048287;28;20441;-73
2023/04/29 08:53:11;;;;;;;2.42;1.63;;;;;;;25.44;29.31;102091.88;5048495;28;20083;-72
2023/04/29 08:55:42;;;;;;;2.75;1.83;;;;;;;25.50;28.78;102097.75;5049187;28;20123;-72
2023/04/29 08:58:08;;;;;;;1.50;1.30;;;;;;;25.56;28.58;102097.41;5030448;28;20041;-72
2023/04/29 09:00:34;;;;;;;2.03;1.63;;;;;;;25.43;28.76;102099.03;5044397;28;20393;-72
2023/04/29 09:03:10;;;;;;;1.75;1.50;;;;;;;23.23;31.74;102110.34;5049829;28;20484;-72
2023/04/29 09:05:36;;;;;;;3.65;1.80;;;;;;;22.26;33.66;102113.34;5049515;28;20033;-72
2023/04/29 09:08:04;;;;;;;3.38;1.65;;;;;;;25.38;30.10;102101.09;5048544;28;20028;-72
2023/04/29 09:10:29;;;;;;;4.57;1.67;;;;;;;22.91;31.92;102109.91;5036655;28;20101;-72
2023/04/29 09:12:57;;;;;;;2.90;1.70;;;;;;;24.66;29.76;102100.25;5029606;28;20111;-72
2023/04/29 09:15:22;;;;;;;6.45;1.98;;;;;;;25.63;29.57;102102.44;5041269;28;20033;-72
2023/04/29 09:17:48;;;;;;;2.60;1.70;;;;;;;26.24;28.10;102098.22;5061533;28;20039;-72
2023/04/29 09:20:34;;;;;;;2.92;1.50;;;;;;;27.06;26.77;102099.72;5043674;28;20021;-73
2023/04/29 09:23:02;;;;;;;2.58;1.70;;;;;;;26.30;27.63;102102.38;5049322;28;20087;-72
2023/04/29 09:25:28;;;;;;;3.90;1.85;;;;;;;25.89;28.89;102101.88;5047105;28;20037;-73
2023/04/29 09:27:54;;;;;;;3.83;2.17;;;;;;;26.86;27.47;102106.31;5049383;28;20375;-73
2023/04/29 09:30:21;;;;;;;2.58;1.88;;;;;;;27.75;26.25;102109.88;5048210;28;20036;-73
2023/04/29 09:33:05;;;;;;;3.20;1.85;;;;;;;25.03;28.96;102111.75;5050192;28;20028;-72
2023/04/29 09:35:31;;;;;;;4.28;2.45;;;;;;;27.04;27.34;102108.84;5048782;28;20031;-73
2023/04/29 09:38:13;;;;;;;5.30;1.90;;;;;;;25.78;27.99;102120.34;5048263;28;20424;-72
2023/04/29 09:40:40;;;;;;;4.82;1.50;;;;;;;25.46;28.55;102119.38;5049709;28;20048;-72
2023/04/29 09:43:14;;;;;;;1.70;1.58;;;;;;;24.85;29.39;102127.81;5047571;28;20056;-72
2023/04/29 09:45:42;;;;;;;2.83;1.60;;;;;;;24.75;30.20;102128.34;5044500;28;20043;-72
2023/04/29 09:48:09;;;;;;;2.30;1.80;;;;;;;26.33;27.55;102123.63;5044966;28;20029;-73
2023/04/29 09:50:38;;;;;;;2.78;1.55;;;;;;;25.16;28.44;102126.25;5037012;28;20029;-73
2023/04/29 09:53:08;;;;;;;2.60;1.90;;;;;;;25.56;28.18;102121.50;5036088;28;20570;-74
2023/04/29 09:55:52;;;;;;;2.05;1.58;;;;;;;26.64;27.58;102121.88;5055884;28;20066;-73
2023/04/29 09:58:39;;;;;;;2.58;1.80;;;;;;;27.11;28.05;102120.94;5067769;28;20400;-72
2023/04/29 10:01:05;;;;;;;2.97;1.95;;;;;;;26.73;26.61;102116.00;5059868;28;20162;-72
2023/04/29 10:03:33;;;;;;;1.80;1.45;;;;;;;27.09;25.29;102133.56;5068593;28;20075;-72
2023/04/29 10:05:59;;;;;;;2.80;1.50;;;;;;;27.85;24.96;102127.16;5046754;28;20051;-72
2023/04/29 10:08:26;;;;;;;2.42;1.70;;;;;;;27.11;25.46;102120.94;5048202;28;20556;-73
2023/04/29 10:10:56;;;;;;;3.88;1.65;;;;;;;27.59;25.62;102126.97;5048755;28;20036;-72
2023/04/29 10:13:25;;;;;;;2.63;1.90;;;;;;;28.77;25.08;102130.25;5049729;28;20496;-73
2023/04/29 10:15:57;;;;;;;3.13;1.70;;;;;;;27.28;25.93;102135.16;5044664;28;20068;-72
2023/04/29 10:18:34;;;;;;;3.65;1.55;;;;;;;26.90;25.56;102140.03;5048293;28;20296;-72
2023/04/29 10:21:01;;;;;;;5.68;1.83;;;;;;;25.79;27.04;102148.88;5058612;28;20544;-72
2023/04/29 10:23:29;;;;;;;4.40;2.10;;;;;;;23.47;29.74;102159.97;5065480;28;20503;-72
2023/04/29 10:25:58;;;;;;;2.75;2.20;;;;;;;23.40;30.06;102154.97;5054074;28;20554;-72
2023/04/29 10:28:25;;;;;;;3.80;2.20;;;;;;;26.49;27.21;102151.31;5047256;28;20182;-73
2023/04/29 10:30:51;;;;;;;4.20;1.98;;;;;;;25.62;28.90;102149.75;5042113;28;20531;-72
2023/04/29 10:33:17;;;;;;;6.25;2.53;;;;;;;24.12;29.08;102162.44;5050364;28;20036;-72
2023/04/29 10:35:46;;;;;;;2.63;1.95;;;;;;;26.51;27.33;102144.03;5047384;28;20883;-72
2023/04/29 10:38:23;;;;;;;4.45;2.08;;;;;;;26.58;25.94;102140.06;5044358;28;20028;-73
2023/04/29 10:40:51;;;;;;;3.40;1.85;;;;;;;26.95;26.08;102141.56;5038416;28;20068;-72
2023/04/29 10:43:23;;;;;;;3.20;2.15;;;;;;;27.13;28.16;102132.41;5046093;28;20025;-72
2023/04/29 10:45:48;;;;;;;2.63;2.03;;;;;;;26.60;26.61;102137.28;5055889;28;20036;-73
2023/04/29 10:48:14;;;;;;;3.78;1.65;;;;;;;29.00;24.42;102126.00;5034024;28;20033;-73
2023/04/29 10:50:59;;;;;;;2.63;1.95;;;;;;;28.53;24.32;102138.09;5038202;28;20040;-73
2023/04/29 10:53:26;;;;;;;3.10;1.67;;;;;;;30.29;22.42;102120.56;5047960;28;20041;-73
2023/04/29 10:56:03;;;;;;;4.05;2.00;;;;;;;28.89;23.54;102124.06;5053029;28;20045;-72
2023/04/29 10:58:36;;;;;;;7.28;2.25;;;;;;;29.45;23.54;102131.03;5050128;28;20110;-72
2023/04/29 11:01:02;;;;;;;3.65;1.90;;;;;;;29.85;23.46;102127.38;5045885;28;20397;-73
2023/04/29 11:03:53;;;;;;;3.15;2.50;;;;;;;28.02;24.15;102142.22;5032804;28;20025;-72
2023/04/29 11:06:21;;;;;;;4.95;2.00;;;;;;;28.76;23.57;102150.06;5032696;28;20026;-72
2023/04/29 11:08:46;;;;;;;2.60;1.98;;;;;;;29.89;24.73;102140.50;5032422;28;20350;-73
2023/04/29 11:11:15;;;;;;;3.03;1.98;;;;;;;31.16;22.61;102138.41;5046744;28;20028;-73
2023/04/29 11:13:45;;;;;;;2.10;1.70;;;;;;;32.00;20.13;102146.22;5052836;28;20033;-73
2023/04/29 11:16:11;;;;;;;3.38;2.03;;;;;;;29.60;21.67;102140.72;5049767;28;20024;-73
2023/04/29 11:19:03;;;;;;;3.53;1.85;;;;;;;30.37;22.33;102145.13;5050745;28;20040;-72
2023/04/29 11:21:29;;;;;;;3.83;2.08;;;;;;;30.58;21.59;102142.72;5049767;28;20032;-73
2023/04/29 11:23:56;;;;;;;2.30;1.58;;;;;;;31.63;21.33;102136.53;5056097;28;20017;-72